Terminal Aerodrome Forecast
Issued by NWS

Home | Current Version | Previous Version | Text Only | Print | Product List | Glossary On
Versions: 1 2 3 4 5 6 7 8 9 10 11 12 13 14 15 16 17 18 19 20 21 22 23 24 25 26 27 28 29 30 31 32 33
746
FTUS41 KOKX 202341
TAFHPN
TAF
KHPN 202341Z 2100/2124 34010KT P6SM FEW040 BKN090
     FM211400 35013G21KT P6SM FEW040 BKN250
     FM212200 35008KT P6SM SCT050 BKN250
      AMD NOT SKED=

USA.gov is the U.S. government's official web portal to all federal, state and local government web resources and services.